sensor_id;sensor_type;location;lat;lon;timestamp;noise_LAeq;noise_LA_min;noise_LA_max;noise_LA01;noise_LA95
66452;Laerm;56831;52.380;4.744;2023-01-10T00:00:01;36.28;31.74;46.24;;
66452;Laerm;56831;52.380;4.744;2023-01-10T00:00:13;39.83;33.02;48.68;;
66452;Laerm;56831;52.380;4.744;2023-01-10T00:00:26;37.20;31.69;51.76;;
66452;Laerm;56831;52.380;4.744;2023-01-10T00:00:39;39.68;32.10;50.98;;
66452;Laerm;56831;52.380;4.744;2023-01-10T00:00:50;41.40;32.21;50.97;;
66452;Laerm;56831;52.380;4.744;2023-01-10T00:01:04;43.73;31.96;57.00;;
66452;Laerm;56831;52.380;4.744;2023-01-10T00:01:18;43.32;31.87;52.94;;
66452;Laerm;56831;52.380;4.744;2023-01-10T00:01:34;45.96;31.54;59.68;;
66452;Laerm;56831;52.380;4.744;2023-01-10T00:01:44;42.47;31.65;56.24;;
66452;Laerm;56831;52.380;4.744;2023-01-10T00:01:55;35.61;31.68;48.67;;
66452;Laerm;56831;52.380;4.744;2023-01-10T00:02:06;34.87;31.63;43.62;;
66452;Laerm;56831;52.380;4.744;2023-01-10T00:02:16;35.02;31.18;47.08;;
66452;Laerm;56831;52.380;4.744;2023-01-10T00:02:27;38.29;31.69;51.32;;
66452;Laerm;56831;52.380;4.744;2023-01-10T00:02:40;35.59;30.78;46.78;;
66452;Laerm;56831;52.380;4.744;2023-01-10T00:02:51;34.04;31.39;39.88;;
66452;Laerm;56831;52.380;4.744;2023-01-10T00:03:11;34.21;31.02;43.81;;
66452;Laerm;56831;52.380;4.744;2023-01-10T00:03:22;33.56;31.26;43.09;;
66452;Laerm;56831;52.380;4.744;2023-01-10T00:03:33;33.41;31.85;37.87;;
66452;Laerm;56831;52.380;4.744;2023-01-10T00:03:43;33.71;31.62;41.26;;
66452;Laerm;56831;52.380;4.744;2023-01-10T00:03:54;34.15;32.11;44.34;;
66452;Laerm;56831;52.380;4.744;2023-01-10T00:04:04;33.49;31.90;35.16;;
66452;Laerm;56831;52.380;4.744;2023-01-10T00:04:15;33.48;32.07;34.82;;
66452;Laerm;56831;52.380;4.744;2023-01-10T00:04:25;34.81;31.79;45.84;;
66452;Laerm;56831;52.380;4.744;2023-01-10T00:04:36;33.90;32.01;38.04;;
66452;Laerm;56831;52.380;4.744;2023-01-10T00:04:47;33.73;32.33;35.63;;
66452;Laerm;56831;52.380;4.744;2023-01-10T00:04:57;33.35;31.86;34.90;;
66452;Laerm;56831;52.380;4.744;2023-01-10T00:05:07;33.67;32.31;35.13;;
66452;Laerm;56831;52.380;4.744;2023-01-10T00:05:18;33.14;31.58;35.18;;
66452;Laerm;56831;52.380;4.744;2023-01-10T00:05:28;36.82;32.13;50.35;;
66452;Laerm;56831;52.380;4.744;2023-01-10T00:05:39;35.21;31.30;43.86;;
66452;Laerm;56831;52.380;4.744;2023-01-10T00:05:49;46.19;32.24;61.55;;
66452;Laerm;56831;52.380;4.744;2023-01-10T00:06:00;39.60;32.59;51.51;;
66452;Laerm;56831;52.380;4.744;2023-01-10T00:06:10;35.77;32.91;43.92;;
66452;Laerm;56831;52.380;4.744;2023-01-10T00:06:20;39.44;34.44;48.23;;
66452;Laerm;56831;52.380;4.744;2023-01-10T00:06:32;38.11;32.61;52.23;;
66452;Laerm;56831;52.380;4.744;2023-01-10T00:06:42;35.60;32.55;42.34;;
66452;Laerm;56831;52.380;4.744;2023-01-10T00:06:52;37.94;33.52;48.74;;
66452;Laerm;56831;52.380;4.744;2023-01-10T00:07:03;34.70;32.75;38.44;;
66452;Laerm;56831;52.380;4.744;2023-01-10T00:07:19;40.85;32.39;57.56;;
66452;Laerm;56831;52.380;4.744;2023-01-10T00:07:29;33.19;31.83;34.74;;
66452;Laerm;56831;52.380;4.744;2023-01-10T00:07:40;36.26;31.86;48.97;;
66452;Laerm;56831;52.380;4.744;2023-01-10T00:07:50;37.27;31.61;48.01;;
66452;Laerm;56831;52.380;4.744;2023-01-10T00:08:02;34.28;31.92;39.71;;
66452;Laerm;56831;52.380;4.744;2023-01-10T00:08:14;34.36;31.54;44.42;;
66452;Laerm;56831;52.380;4.744;2023-01-10T00:08:24;33.12;31.39;37.81;;
66452;Laerm;56831;52.380;4.744;2023-01-10T00:08:35;33.18;31.42;37.63;;
66452;Laerm;56831;52.380;4.744;2023-01-10T00:08:47;32.78;31.32;34.51;;
66452;Laerm;56831;52.380;4.744;2023-01-10T00:08:57;32.67;31.56;34.13;;
66452;Laerm;56831;52.380;4.744;2023-01-10T00:09:08;33.03;31.49;35.02;;
66452;Laerm;56831;52.380;4.744;2023-01-10T00:09:19;32.97;31.44;34.72;;
66452;Laerm;56831;52.380;4.744;2023-01-10T00:09:30;34.56;31.47;50.29;;
66452;Laerm;56831;52.380;4.744;2023-01-10T00:09:41;35.23;31.87;41.19;;
66452;Laerm;56831;52.380;4.744;2023-01-10T00:09:51;38.99;34.38;47.99;;
66452;Laerm;56831;52.380;4.744;2023-01-10T00:10:01;48.62;34.66;63.88;;
66452;Laerm;56831;52.380;4.744;2023-01-10T00:10:13;45.71;33.42;55.60;;
66452;Laerm;56831;52.380;4.744;2023-01-10T00:10:24;37.57;31.52;45.21;;
66452;Laerm;56831;52.380;4.744;2023-01-10T00:10:35;35.17;31.78;47.32;;
66452;Laerm;56831;52.380;4.744;2023-01-10T00:10:46;38.28;32.67;46.16;;
66452;Laerm;56831;52.380;4.744;2023-01-10T00:10:57;42.96;32.66;55.92;;
66452;Laerm;56831;52.380;4.744;2023-01-10T00:11:10;38.72;31.94;48.67;;
66452;Laerm;56831;52.380;4.744;2023-01-10T00:11:39;33.79;31.07;41.88;;
66452;Laerm;56831;52.380;4.744;2023-01-10T00:12:08;33.11;30.99;41.31;;
66452;Laerm;56831;52.380;4.744;2023-01-10T00:12:43;34.17;31.29;46.96;;
66452;Laerm;56831;52.380;4.744;2023-01-10T00:13:13;32.85;30.83;40.88;;
66452;Laerm;56831;52.380;4.744;2023-01-10T00:13:33;36.22;31.29;47.95;;
66452;Laerm;56831;52.380;4.744;2023-01-10T00:13:45;50.05;33.05;64.72;;
66452;Laerm;56831;52.380;4.744;2023-01-10T00:13:56;48.96;33.29;62.30;;
66452;Laerm;56831;52.380;4.744;2023-01-10T00:14:08;34.40;31.48;43.33;;
66452;Laerm;56831;52.380;4.744;2023-01-10T00:14:18;34.14;32.20;40.37;;
66452;Laerm;56831;52.380;4.744;2023-01-10T00:14:28;33.36;31.57;39.07;;
66452;Laerm;56831;52.380;4.744;2023-01-10T00:14:39;34.71;31.48;42.11;;
66452;Laerm;56831;52.380;4.744;2023-01-10T00:14:50;33.84;31.57;39.71;;
66452;Laerm;56831;52.380;4.744;2023-01-10T00:15:01;32.67;30.95;34.30;;
66452;Laerm;56831;52.380;4.744;2023-01-10T00:15:12;34.12;31.78;37.16;;
66452;Laerm;56831;52.380;4.744;2023-01-10T00:15:22;34.50;32.25;44.13;;
66452;Laerm;56831;52.380;4.744;2023-01-10T00:15:33;37.36;32.19;48.92;;
66452;Laerm;56831;52.380;4.744;2023-01-10T00:15:44;37.76;32.99;45.72;;
66452;Laerm;56831;52.380;4.744;2023-01-10T00:15:56;36.62;33.77;45.58;;
66452;Laerm;56831;52.380;4.744;2023-01-10T00:16:07;38.71;35.11;49.28;;
66452;Laerm;56831;52.380;4.744;2023-01-10T00:16:18;40.56;33.59;50.55;;
66452;Laerm;56831;52.380;4.744;2023-01-10T00:16:28;38.82;32.46;49.39;;
66452;Laerm;56831;52.380;4.744;2023-01-10T00:16:39;38.59;32.61;55.23;;
66452;Laerm;56831;52.380;4.744;2023-01-10T00:16:54;34.14;32.60;41.43;;
66452;Laerm;56831;52.380;4.744;2023-01-10T00:17:04;35.18;32.01;47.27;;
66452;Laerm;56831;52.380;4.744;2023-01-10T00:17:15;33.00;31.48;36.04;;
66452;Laerm;56831;52.380;4.744;2023-01-10T00:17:27;34.01;31.24;44.36;;
66452;Laerm;56831;52.380;4.744;2023-01-10T00:17:38;37.21;31.28;51.80;;
66452;Laerm;56831;52.380;4.744;2023-01-10T00:17:48;32.96;31.22;38.95;;
66452;Laerm;56831;52.380;4.744;2023-01-10T00:17:58;33.26;31.40;41.12;;
66452;Laerm;56831;52.380;4.744;2023-01-10T00:18:09;32.99;31.65;36.19;;
66452;Laerm;56831;52.380;4.744;2023-01-10T00:18:20;32.74;30.86;36.05;;
66452;Laerm;56831;52.380;4.744;2023-01-10T00:18:30;33.08;31.51;36.17;;
66452;Laerm;56831;52.380;4.744;2023-01-10T00:18:40;33.88;31.36;41.97;;
66452;Laerm;56831;52.380;4.744;2023-01-10T00:18:51;34.30;31.32;44.97;;
66452;Laerm;56831;52.380;4.744;2023-01-10T00:19:01;45.13;31.24;56.60;;
66452;Laerm;56831;52.380;4.744;2023-01-10T00:19:12;42.24;32.49;56.47;;
66452;Laerm;56831;52.380;4.744;2023-01-10T00:19:22;33.93;31.50;42.13;;
66452;Laerm;56831;52.380;4.744;2023-01-10T00:19:32;33.19;31.44;36.00;;
66452;Laerm;56831;52.380;4.744;2023-01-10T00:19:43;37.00;32.02;47.70;;
66452;Laerm;56831;52.380;4.744;2023-01-10T00:19:53;34.98;31.99;46.53;;
66452;Laerm;56831;52.380;4.744;2023-01-10T00:20:03;33.33;31.19;37.05;;
66452;Laerm;56831;52.380;4.744;2023-01-10T00:20:14;33.39;31.27;42.91;;
66452;Laerm;56831;52.380;4.744;2023-01-10T00:20:24;35.47;31.79;44.40;;
66452;Laerm;56831;52.380;4.744;2023-01-10T00:20:35;44.12;32.62;57.76;;
66452;Laerm;56831;52.380;4.744;2023-01-10T00:20:45;36.66;32.19;47.79;;
66452;Laerm;56831;52.380;4.744;2023-01-10T00:20:56;33.90;31.82;36.75;;
66452;Laerm;56831;52.380;4.744;2023-01-10T00:21:07;33.60;31.34;41.98;;
66452;Laerm;56831;52.380;4.744;2023-01-10T00:21:18;36.56;31.67;49.90;;
66452;Laerm;56831;52.380;4.744;2023-01-10T00:21:29;37.90;30.83;47.22;;
66452;Laerm;56831;52.380;4.744;2023-01-10T00:21:40;34.34;31.10;42.33;;
66452;Laerm;56831;52.380;4.744;2023-01-10T00:21:50;33.29;31.51;35.93;;
66452;Laerm;56831;52.380;4.744;2023-01-10T00:22:01;35.62;32.49;47.87;;
66452;Laerm;56831;52.380;4.744;2023-01-10T00:22:21;39.78;32.60;54.66;;
66452;Laerm;56831;52.380;4.744;2023-01-10T00:22:34;40.74;31.84;56.31;;
66452;Laerm;56831;52.380;4.744;2023-01-10T00:22:44;43.97;33.44;53.24;;
66452;Laerm;56831;52.380;4.744;2023-01-10T00:22:54;47.89;33.73;70.95;;
66452;Laerm;56831;52.380;4.744;2023-01-10T00:23:11;45.07;40.78;48.90;;
66452;Laerm;56831;52.380;4.744;2023-01-10T00:23:21;50.14;45.01;68.95;;
66452;Laerm;56831;52.380;4.744;2023-01-10T00:23:32;53.35;49.55;65.72;;
66452;Laerm;56831;52.380;4.744;2023-01-10T00:23:44;51.38;48.43;62.44;;
66452;Laerm;56831;52.380;4.744;2023-01-10T00:23:56;53.28;49.25;60.32;;
66452;Laerm;56831;52.380;4.744;2023-01-10T00:24:36;48.58;42.32;69.06;;
66452;Laerm;56831;52.380;4.744;2023-01-10T00:24:48;43.81;39.07;48.77;;
66452;Laerm;56831;52.380;4.744;2023-01-10T00:24:58;39.91;35.68;51.91;;
66452;Laerm;56831;52.380;4.744;2023-01-10T00:25:14;40.27;36.98;50.59;;
66452;Laerm;56831;52.380;4.744;2023-01-10T00:25:30;40.44;36.04;53.61;;
66452;Laerm;56831;52.380;4.744;2023-01-10T00:25:43;42.65;38.59;49.34;;
66452;Laerm;56831;52.380;4.744;2023-01-10T00:25:54;51.55;46.36;60.69;;
66452;Laerm;56831;52.380;4.744;2023-01-10T00:26:05;52.18;48.92;57.62;;
66452;Laerm;56831;52.380;4.744;2023-01-10T00:26:15;52.47;49.52;60.25;;
66452;Laerm;56831;52.380;4.744;2023-01-10T00:26:26;51.77;48.85;54.64;;
66452;Laerm;56831;52.380;4.744;2023-01-10T00:26:36;52.45;50.49;58.20;;
66452;Laerm;56831;52.380;4.744;2023-01-10T00:26:49;49.83;42.43;53.03;;
66452;Laerm;56831;52.380;4.744;2023-01-10T00:27:03;49.25;42.46;69.82;;
66452;Laerm;56831;52.380;4.744;2023-01-10T00:27:13;50.30;46.95;57.26;;
66452;Laerm;56831;52.380;4.744;2023-01-10T00:27:29;48.24;43.73;64.92;;
66452;Laerm;56831;52.380;4.744;2023-01-10T00:27:40;44.40;39.69;51.05;;
66452;Laerm;56831;52.380;4.744;2023-01-10T00:28:00;57.30;39.63;76.73;;
66452;Laerm;56831;52.380;4.744;2023-01-10T00:28:29;55.85;48.11;64.01;;
66452;Laerm;56831;52.380;4.744;2023-01-10T00:28:43;55.50;50.40;63.17;;
66452;Laerm;56831;52.380;4.744;2023-01-10T00:28:54;55.93;49.27;68.26;;
66452;Laerm;56831;52.380;4.744;2023-01-10T00:29:04;55.91;51.84;67.20;;
66452;Laerm;56831;52.380;4.744;2023-01-10T00:29:20;53.03;46.89;65.71;;
66452;Laerm;56831;52.380;4.744;2023-01-10T00:29:31;48.67;43.41;57.88;;
66452;Laerm;56831;52.380;4.744;2023-01-10T00:29:46;53.47;50.45;56.16;;
66452;Laerm;56831;52.380;4.744;2023-01-10T00:29:57;46.95;39.83;63.02;;
66452;Laerm;56831;52.380;4.744;2023-01-10T00:30:16;44.23;37.51;59.82;;
66452;Laerm;56831;52.380;4.744;2023-01-10T00:30:27;40.53;36.42;51.44;;
66452;Laerm;56831;52.380;4.744;2023-01-10T00:30:37;41.24;36.72;53.68;;
66452;Laerm;56831;52.380;4.744;2023-01-10T00:30:49;41.50;38.78;53.93;;
66452;Laerm;56831;52.380;4.744;2023-01-10T00:31:10;42.11;39.47;49.85;;
66452;Laerm;56831;52.380;4.744;2023-01-10T00:31:21;40.29;35.24;52.63;;
66452;Laerm;56831;52.380;4.744;2023-01-10T00:31:32;40.96;36.81;56.62;;
66452;Laerm;56831;52.380;4.744;2023-01-10T00:31:43;38.85;36.50;43.55;;
66452;Laerm;56831;52.380;4.744;2023-01-10T00:31:53;38.71;34.84;43.63;;
66452;Laerm;56831;52.380;4.744;2023-01-10T00:32:04;45.90;33.84;66.17;;
66452;Laerm;56831;52.380;4.744;2023-01-10T00:32:14;36.55;31.94;52.33;;
66452;Laerm;56831;52.380;4.744;2023-01-10T00:32:25;34.53;32.18;42.42;;
66452;Laerm;56831;52.380;4.744;2023-01-10T00:32:35;34.54;31.91;40.33;;
66452;Laerm;56831;52.380;4.744;2023-01-10T00:32:52;37.99;32.55;51.27;;
66452;Laerm;56831;52.380;4.744;2023-01-10T00:33:02;42.13;32.81;53.60;;
66452;Laerm;56831;52.380;4.744;2023-01-10T00:33:13;37.26;32.96;54.25;;
66452;Laerm;56831;52.380;4.744;2023-01-10T00:33:29;36.29;32.61;45.36;;
66452;Laerm;56831;52.380;4.744;2023-01-10T00:33:40;34.85;31.67;42.86;;
66452;Laerm;56831;52.380;4.744;2023-01-10T00:33:51;40.49;32.59;51.91;;
66452;Laerm;56831;52.380;4.744;2023-01-10T00:34:01;44.48;32.43;56.97;;
66452;Laerm;56831;52.380;4.744;2023-01-10T00:34:12;39.86;32.24;50.05;;
66452;Laerm;56831;52.380;4.744;2023-01-10T00:34:22;43.05;32.37;55.25;;
66452;Laerm;56831;52.380;4.744;2023-01-10T00:34:33;38.08;31.58;47.82;;
66452;Laerm;56831;52.380;4.744;2023-01-10T00:34:44;36.50;32.17;48.52;;
66452;Laerm;56831;52.380;4.744;2023-01-10T00:34:54;34.63;32.20;43.06;;
66452;Laerm;56831;52.380;4.744;2023-01-10T00:35:05;38.73;32.27;50.54;;
66452;Laerm;56831;52.380;4.744;2023-01-10T00:35:16;35.66;31.69;43.73;;
66452;Laerm;56831;52.380;4.744;2023-01-10T00:35:26;33.88;32.12;39.69;;
66452;Laerm;56831;52.380;4.744;2023-01-10T00:35:36;33.24;30.91;40.04;;
66452;Laerm;56831;52.380;4.744;2023-01-10T00:35:47;32.81;31.26;37.90;;
66452;Laerm;56831;52.380;4.744;2023-01-10T00:36:00;33.13;31.00;41.25;;
66452;Laerm;56831;52.380;4.744;2023-01-10T00:36:11;34.55;31.91;43.01;;
66452;Laerm;56831;52.380;4.744;2023-01-10T00:36:23;36.33;32.34;46.94;;
66452;Laerm;56831;52.380;4.744;2023-01-10T00:36:36;35.34;31.34;46.70;;
66452;Laerm;56831;52.380;4.744;2023-01-10T00:36:47;35.77;31.48;45.90;;
66452;Laerm;56831;52.380;4.744;2023-01-10T00:36:57;33.18;31.44;36.12;;
66452;Laerm;56831;52.380;4.744;2023-01-10T00:37:08;33.54;31.69;39.82;;
66452;Laerm;56831;52.380;4.744;2023-01-10T00:37:18;34.18;32.02;41.77;;
66452;Laerm;56831;52.380;4.744;2023-01-10T00:37:30;38.19;32.30;51.13;;
66452;Laerm;56831;52.380;4.744;2023-01-10T00:37:41;36.13;32.52;45.11;;
66452;Laerm;56831;52.380;4.744;2023-01-10T00:37:51;34.52;32.38;42.24;;
66452;Laerm;56831;52.380;4.744;2023-01-10T00:38:07;33.89;32.07;41.35;;
66452;Laerm;56831;52.380;4.744;2023-01-10T00:38:20;34.15;32.20;38.60;;
66452;Laerm;56831;52.380;4.744;2023-01-10T00:38:34;34.55;32.47;39.09;;
66452;Laerm;56831;52.380;4.744;2023-01-10T00:38:44;34.46;32.19;37.28;;
66452;Laerm;56831;52.380;4.744;2023-01-10T00:38:55;34.34;32.24;42.49;;
66452;Laerm;56831;52.380;4.744;2023-01-10T00:39:05;34.08;32.22;40.79;;
66452;Laerm;56831;52.380;4.744;2023-01-10T00:39:15;34.43;32.56;40.37;;
66452;Laerm;56831;52.380;4.744;2023-01-10T00:39:31;34.14;32.22;37.32;;
66452;Laerm;56831;52.380;4.744;2023-01-10T00:39:41;35.66;33.03;40.68;;
66452;Laerm;56831;52.380;4.744;2023-01-10T00:39:57;34.92;32.39;48.25;;
66452;Laerm;56831;52.380;4.744;2023-01-10T00:40:09;37.30;33.30;43.10;;
66452;Laerm;56831;52.380;4.744;2023-01-10T00:40:26;43.33;35.78;52.18;;
66452;Laerm;56831;52.380;4.744;2023-01-10T00:40:37;47.70;44.76;51.52;;
66452;Laerm;56831;52.380;4.744;2023-01-10T00:40:53;47.93;41.75;54.31;;
66452;Laerm;56831;52.380;4.744;2023-01-10T00:41:03;43.60;39.77;47.61;;
66452;Laerm;56831;52.380;4.744;2023-01-10T00:41:34;37.82;32.52;49.87;;
66452;Laerm;56831;52.380;4.744;2023-01-10T00:42:04;33.90;31.56;41.08;;
66452;Laerm;56831;52.380;4.744;2023-01-10T00:42:34;36.63;31.82;51.48;;
66452;Laerm;56831;52.380;4.744;2023-01-10T00:43:03;35.18;31.92;49.48;;
66452;Laerm;56831;52.380;4.744;2023-01-10T00:43:31;37.14;32.01;47.22;;
66452;Laerm;56831;52.380;4.744;2023-01-10T00:44:00;36.05;32.34;48.60;;
66452;Laerm;56831;52.380;4.744;2023-01-10T00:44:11;34.31;31.70;37.67;;
66452;Laerm;56831;52.380;4.744;2023-01-10T00:44:21;37.68;31.83;53.19;;
66452;Laerm;56831;52.380;4.744;2023-01-10T00:44:32;42.48;31.83;60.19;;
66452;Laerm;56831;52.380;4.744;2023-01-10T00:44:43;36.53;31.28;48.25;;
66452;Laerm;56831;52.380;4.744;2023-01-10T00:44:55;35.56;31.53;48.11;;
66452;Laerm;56831;52.380;4.744;2023-01-10T00:45:07;33.91;31.44;40.06;;
66452;Laerm;56831;52.380;4.744;2023-01-10T00:45:17;34.23;31.63;40.28;;
66452;Laerm;56831;52.380;4.744;2023-01-10T00:45:29;33.30;31.09;38.27;;
66452;Laerm;56831;52.380;4.744;2023-01-10T00:45:46;34.02;30.64;46.29;;
66452;Laerm;56831;52.380;4.744;2023-01-10T00:45:56;33.18;30.43;40.89;;
66452;Laerm;56831;52.380;4.744;2023-01-10T00:46:07;32.07;30.76;33.82;;
66452;Laerm;56831;52.380;4.744;2023-01-10T00:46:18;32.41;30.83;38.64;;
66452;Laerm;56831;52.380;4.744;2023-01-10T00:46:35;33.73;30.63;43.72;;
66452;Laerm;56831;52.380;4.744;2023-01-10T00:46:47;34.94;31.82;44.04;;
66452;Laerm;56831;52.380;4.744;2023-01-10T00:46:57;33.39;32.00;36.98;;
66452;Laerm;56831;52.380;4.744;2023-01-10T00:47:09;32.88;31.30;36.70;;
66452;Laerm;56831;52.380;4.744;2023-01-10T00:47:20;33.88;31.27;41.55;;
66452;Laerm;56831;52.380;4.744;2023-01-10T00:47:30;35.94;32.02;45.60;;
66452;Laerm;56831;52.380;4.744;2023-01-10T00:47:42;33.86;31.57;37.93;;
66452;Laerm;56831;52.380;4.744;2023-01-10T00:47:56;33.71;31.21;38.97;;
66452;Laerm;56831;52.380;4.744;2023-01-10T00:48:12;34.72;32.08;41.39;;
66452;Laerm;56831;52.380;4.744;2023-01-10T00:48:24;34.27;32.52;39.76;;
66452;Laerm;56831;52.380;4.744;2023-01-10T00:48:34;33.59;31.95;35.70;;
66452;Laerm;56831;52.380;4.744;2023-01-10T00:48:45;35.29;31.97;41.65;;
66452;Laerm;56831;52.380;4.744;2023-01-10T00:48:55;41.67;34.72;53.52;;
66452;Laerm;56831;52.380;4.744;2023-01-10T00:49:06;45.00;37.74;51.38;;
66452;Laerm;56831;52.380;4.744;2023-01-10T00:49:25;39.03;32.67;62.10;;
66452;Laerm;56831;52.380;4.744;2023-01-10T00:49:38;34.41;32.58;40.51;;
66452;Laerm;56831;52.380;4.744;2023-01-10T00:49:48;34.37;32.40;43.22;;
66452;Laerm;56831;52.380;4.744;2023-01-10T00:50:05;33.64;31.59;43.87;;
66452;Laerm;56831;52.380;4.744;2023-01-10T00:50:17;33.70;31.91;37.48;;
66452;Laerm;56831;52.380;4.744;2023-01-10T00:50:31;33.69;31.95;39.91;;
66452;Laerm;56831;52.380;4.744;2023-01-10T00:50:44;33.59;31.93;41.30;;
66452;Laerm;56831;52.380;4.744;2023-01-10T00:50:58;33.41;31.84;38.19;;
66452;Laerm;56831;52.380;4.744;2023-01-10T00:51:09;35.18;32.27;43.73;;
66452;Laerm;56831;52.380;4.744;2023-01-10T00:51:20;36.27;31.74;49.47;;
66452;Laerm;56831;52.380;4.744;2023-01-10T00:51:33;39.70;33.81;50.67;;
66452;Laerm;56831;52.380;4.744;2023-01-10T00:51:52;37.29;32.36;50.00;;
66452;Laerm;56831;52.380;4.744;2023-01-10T00:52:13;34.78;31.69;40.00;;
66452;Laerm;56831;52.380;4.744;2023-01-10T00:52:29;36.29;32.42;44.27;;
66452;Laerm;56831;52.380;4.744;2023-01-10T00:52:40;34.60;32.25;43.29;;
66452;Laerm;56831;52.380;4.744;2023-01-10T00:52:50;34.26;32.07;39.67;;
66452;Laerm;56831;52.380;4.744;2023-01-10T00:53:02;39.51;33.09;53.14;;
66452;Laerm;56831;52.380;4.744;2023-01-10T00:53:12;40.27;32.71;51.44;;
66452;Laerm;56831;52.380;4.744;2023-01-10T00:53:23;38.09;33.47;46.05;;
66452;Laerm;56831;52.380;4.744;2023-01-10T00:53:34;37.12;33.58;42.73;;
66452;Laerm;56831;52.380;4.744;2023-01-10T00:53:47;35.89;32.42;45.39;;
66452;Laerm;56831;52.380;4.744;2023-01-10T00:53:58;34.12;32.26;43.30;;
66452;Laerm;56831;52.380;4.744;2023-01-10T00:54:11;34.83;32.26;44.62;;
66452;Laerm;56831;52.380;4.744;2023-01-10T00:54:24;35.20;31.81;47.42;;
66452;Laerm;56831;52.380;4.744;2023-01-10T00:54:34;33.94;31.82;41.32;;
66452;Laerm;56831;52.380;4.744;2023-01-10T00:54:45;33.94;32.08;43.51;;
66452;Laerm;56831;52.380;4.744;2023-01-10T00:54:57;37.26;32.72;48.37;;
66452;Laerm;56831;52.380;4.744;2023-01-10T00:55:07;36.51;34.13;47.55;;
66452;Laerm;56831;52.380;4.744;2023-01-10T00:55:18;51.53;33.41;68.48;;
66452;Laerm;56831;52.380;4.744;2023-01-10T00:55:34;42.14;32.69;53.10;;
66452;Laerm;56831;52.380;4.744;2023-01-10T00:55:45;35.76;33.29;45.31;;
66452;Laerm;56831;52.380;4.744;2023-01-10T00:55:57;35.83;33.65;46.66;;
66452;Laerm;56831;52.380;4.744;2023-01-10T00:56:07;38.87;34.72;45.82;;
66452;Laerm;56831;52.380;4.744;2023-01-10T00:56:22;44.91;37.74;51.98;;
66452;Laerm;56831;52.380;4.744;2023-01-10T00:56:36;49.91;39.01;60.78;;
66452;Laerm;56831;52.380;4.744;2023-01-10T00:56:48;44.93;38.68;58.60;;
66452;Laerm;56831;52.380;4.744;2023-01-10T00:56:59;43.54;38.06;56.72;;
66452;Laerm;56831;52.380;4.744;2023-01-10T00:57:14;48.24;37.52;60.47;;
66452;Laerm;56831;52.380;4.744;2023-01-10T00:57:24;52.69;47.39;57.02;;
66452;Laerm;56831;52.380;4.744;2023-01-10T00:57:34;51.83;43.84;64.73;;
66452;Laerm;56831;52.380;4.744;2023-01-10T00:57:46;43.44;38.04;53.54;;
66452;Laerm;56831;52.380;4.744;2023-01-10T00:57:57;37.98;34.85;44.97;;
66452;Laerm;56831;52.380;4.744;2023-01-10T00:58:07;36.14;34.26;41.17;;
66452;Laerm;56831;52.380;4.744;2023-01-10T00:58:20;35.62;32.36;43.95;;
66452;Laerm;56831;52.380;4.744;2023-01-10T00:58:31;40.10;34.52;48.25;;
66452;Laerm;56831;52.380;4.744;2023-01-10T00:58:46;35.94;33.26;41.61;;
66452;Laerm;56831;52.380;4.744;2023-01-10T00:58:56;36.47;33.56;43.46;;
66452;Laerm;56831;52.380;4.744;2023-01-10T00:59:06;35.40;32.86;44.08;;
66452;Laerm;56831;52.380;4.744;2023-01-10T00:59:17;37.16;33.90;48.69;;
66452;Laerm;56831;52.380;4.744;2023-01-10T00:59:28;41.53;34.75;52.36;;
66452;Laerm;56831;52.380;4.744;2023-01-10T00:59:38;48.19;36.40;56.29;;
66452;Laerm;56831;52.380;4.744;2023-01-10T00:59:49;53.43;47.90;58.30;;
66452;Laerm;56831;52.380;4.744;2023-01-10T00:59:59;53.86;51.44;57.32;;
66452;Laerm;56831;52.380;4.744;2023-01-10T01:00:11;52.00;48.04;56.93;;
66452;Laerm;56831;52.380;4.744;2023-01-10T01:00:23;48.98;45.32;58.34;;
66452;Laerm;56831;52.380;4.744;2023-01-10T01:00:33;53.31;45.08;68.12;;
66452;Laerm;56831;52.380;4.744;2023-01-10T01:00:43;53.14;50.10;58.74;;
66452;Laerm;56831;52.380;4.744;2023-01-10T01:00:58;50.43;46.69;54.34;;
66452;Laerm;56831;52.380;4.744;2023-01-10T01:01:09;51.27;47.62;55.27;;
66452;Laerm;56831;52.380;4.744;2023-01-10T01:01:19;49.84;47.26;53.45;;
66452;Laerm;56831;52.380;4.744;2023-01-10T01:01:30;52.88;49.35;59.12;;
66452;Laerm;56831;52.380;4.744;2023-01-10T01:01:46;55.30;45.69;65.42;;
66452;Laerm;56831;52.380;4.744;2023-01-10T01:01:57;57.20;48.97;79.73;;
66452;Laerm;56831;52.380;4.744;2023-01-10T01:02:07;49.53;44.69;55.97;;
66452;Laerm;56831;52.380;4.744;2023-01-10T01:02:17;52.84;43.69;74.29;;
66452;Laerm;56831;52.380;4.744;2023-01-10T01:02:29;47.98;43.96;52.46;;
66452;Laerm;56831;52.380;4.744;2023-01-10T01:02:39;45.83;41.88;50.00;;
66452;Laerm;56831;52.380;4.744;2023-01-10T01:02:50;43.40;38.20;48.15;;
66452;Laerm;56831;52.380;4.744;2023-01-10T01:03:01;47.83;40.83;55.98;;
66452;Laerm;56831;52.380;4.744;2023-01-10T01:03:13;43.34;38.21;50.81;;
66452;Laerm;56831;52.380;4.744;2023-01-10T01:03:23;40.03;35.43;46.27;;
66452;Laerm;56831;52.380;4.744;2023-01-10T01:03:33;42.20;36.40;62.09;;
66452;Laerm;56831;52.380;4.744;2023-01-10T01:03:44;41.83;38.28;58.08;;
66452;Laerm;56831;52.380;4.744;2023-01-10T01:03:54;41.26;36.27;51.27;;
66452;Laerm;56831;52.380;4.744;2023-01-10T01:04:08;36.33;33.11;42.90;;
66452;Laerm;56831;52.380;4.744;2023-01-10T01:04:18;36.08;33.47;46.57;;
66452;Laerm;56831;52.380;4.744;2023-01-10T01:04:29;35.83;33.58;45.35;;
66452;Laerm;56831;52.380;4.744;2023-01-10T01:04:43;35.15;32.78;42.92;;
66452;Laerm;56831;52.380;4.744;2023-01-10T01:04:53;35.86;32.94;41.78;;
66452;Laerm;56831;52.380;4.744;2023-01-10T01:05:03;35.60;32.85;40.48;;
66452;Laerm;56831;52.380;4.744;2023-01-10T01:05:20;34.83;32.21;42.72;;
66452;Laerm;56831;52.380;4.744;2023-01-10T01:05:30;34.12;31.50;39.37;;
66452;Laerm;56831;52.380;4.744;2023-01-10T01:05:41;37.37;34.08;44.50;;
66452;Laerm;56831;52.380;4.744;2023-01-10T01:05:52;36.87;32.43;45.14;;
66452;Laerm;56831;52.380;4.744;2023-01-10T01:06:03;40.45;31.89;50.13;;
66452;Laerm;56831;52.380;4.744;2023-01-10T01:06:15;35.34;32.47;42.44;;
66452;Laerm;56831;52.380;4.744;2023-01-10T01:06:25;33.89;32.11;41.62;;
66452;Laerm;56831;52.380;4.744;2023-01-10T01:06:37;42.77;32.07;55.53;;
66452;Laerm;56831;52.380;4.744;2023-01-10T01:06:48;36.74;31.55;47.44;;
66452;Laerm;56831;52.380;4.744;2023-01-10T01:07:00;34.43;31.68;44.88;;
66452;Laerm;56831;52.380;4.744;2023-01-10T01:07:11;33.33;31.45;39.59;;
66452;Laerm;56831;52.380;4.744;2023-01-10T01:07:21;33.39;31.76;40.82;;
66452;Laerm;56831;52.380;4.744;2023-01-10T01:07:31;33.25;31.22;41.80;;
66452;Laerm;56831;52.380;4.744;2023-01-10T01:07:42;33.47;30.93;40.09;;
66452;Laerm;56831;52.380;4.744;2023-01-10T01:07:52;33.65;31.38;40.89;;
66452;Laerm;56831;52.380;4.744;2023-01-10T01:08:03;35.52;32.31;42.74;;
66452;Laerm;56831;52.380;4.744;2023-01-10T01:08:17;34.04;32.32;42.68;;
66452;Laerm;56831;52.380;4.744;2023-01-10T01:08:27;34.23;32.34;39.27;;
66452;Laerm;56831;52.380;4.744;2023-01-10T01:08:38;34.19;32.32;42.02;;
66452;Laerm;56831;52.380;4.744;2023-01-10T01:08:48;34.73;32.61;43.70;;
66452;Laerm;56831;52.380;4.744;2023-01-10T01:08:59;34.91;32.76;41.45;;
66452;Laerm;56831;52.380;4.744;2023-01-10T01:09:09;34.80;32.35;39.06;;